sensor_id;sensor_type;location;lat;lon;timestamp;temperature;humidity
55151;DHT22;41041;43.162;20.538;2024-03-08T05:25:39;179.60;2252.80
55151;DHT22;41041;43.162;20.538;2024-03-08T05:28:05;179.40;2252.80
55151;DHT22;41041;43.162;20.538;2024-03-08T05:30:30;179.50;2252.80
55151;DHT22;41041;43.162;20.538;2024-03-08T05:32:57;179.50;2252.80
55151;DHT22;41041;43.162;20.538;2024-03-08T05:35:23;179.60;2252.80
55151;DHT22;41041;43.162;20.538;2024-03-08T05:37:50;179.60;2252.80
55151;DHT22;41041;43.162;20.538;2024-03-08T05:40:15;179.60;2252.80
55151;DHT22;41041;43.162;20.538;2024-03-08T05:42:41;179.60;2252.80
55151;DHT22;41041;43.162;20.538;2024-03-08T05:45:08;179.60;2252.80
55151;DHT22;41041;43.162;20.538;2024-03-08T05:50:39;180.00;2252.80
55151;DHT22;41041;43.162;20.538;2024-03-08T05:53:05;179.90;2252.80
55151;DHT22;41041;43.162;20.538;2024-03-08T05:55:34;179.80;2252.80
55151;DHT22;41041;43.162;20.538;2024-03-08T05:58:02;179.70;2252.80
55151;DHT22;41041;43.162;20.538;2024-03-08T06:00:28;179.80;2252.80
55151;DHT22;41041;43.162;20.538;2024-03-08T06:02:56;204.80;2252.80
55151;DHT22;41041;43.162;20.538;2024-03-08T12:06:48;333.10;1894.40
55151;DHT22;41041;43.162;20.538;2024-03-08T12:09:17;333.10;1843.20
55151;DHT22;41041;43.162;20.538;2024-03-08T12:11:48;333.10;1843.20
55151;DHT22;41041;43.162;20.538;2024-03-08T12:30:26;333.60;1740.80
55151;DHT22;41041;43.162;20.538;2024-03-08T12:45:27;358.70;1638.40
55151;DHT22;41041;43.162;20.538;2024-03-08T12:50:22;358.70;1587.20
55151;DHT22;41041;43.162;20.538;2024-03-08T12:52:50;358.50;1587.20
55151;DHT22;41041;43.162;20.538;2024-03-08T12:55:19;358.80;1587.20
55151;DHT22;41041;43.162;20.538;2024-03-08T12:57:48;358.50;1561.60
55151;DHT22;41041;43.162;20.538;2024-03-08T13:03:38;358.40;1433.60
55151;DHT22;41041;43.162;20.538;2024-03-08T13:06:05;358.40;1459.20
55151;DHT22;41041;43.162;20.538;2024-03-08T13:08:35;358.60;1459.20
55151;DHT22;41041;43.162;20.538;2024-03-08T13:11:05;358.40;1689.60
55151;DHT22;41041;43.162;20.538;2024-03-08T13:13:31;358.40;1715.20
55151;DHT22;41041;43.162;20.538;2024-03-08T13:15:58;358.50;1766.40
55151;DHT22;41041;43.162;20.538;2024-03-08T13:18:32;358.50;1766.40
55151;DHT22;41041;43.162;20.538;2024-03-08T13:20:59;358.40;1766.40
55151;DHT22;41041;43.162;20.538;2024-03-08T13:38:12;333.50;1740.80
55151;DHT22;41041;43.162;20.538;2024-03-08T13:40:39;333.50;1766.40
55151;DHT22;41041;43.162;20.538;2024-03-08T13:43:06;333.50;1715.20
55151;DHT22;41041;43.162;20.538;2024-03-08T13:45:34;333.60;1689.60
55151;DHT22;41041;43.162;20.538;2024-03-08T13:48:04;333.50;1664.00
55151;DHT22;41041;43.162;20.538;2024-03-08T13:53:52;333.50;1689.60
55151;DHT22;41041;43.162;20.538;2024-03-08T13:56:18;333.60;1664.00
55151;DHT22;41041;43.162;20.538;2024-03-08T13:58:44;333.50;1612.80
55151;DHT22;41041;43.162;20.538;2024-03-08T14:01:09;333.60;1638.40
55151;DHT22;41041;43.162;20.538;2024-03-08T14:03:37;333.60;1587.20
55151;DHT22;41041;43.162;20.538;2024-03-08T14:06:04;333.60;1587.20
55151;DHT22;41041;43.162;20.538;2024-03-08T14:08:29;333.50;1587.20
55151;DHT22;41041;43.162;20.538;2024-03-08T14:10:58;333.40;1638.40
55151;DHT22;41041;43.162;20.538;2024-03-08T14:13:24;333.30;1638.40
55151;DHT22;41041;43.162;20.538;2024-03-08T14:15:50;333.30;1740.80
55151;DHT22;41041;43.162;20.538;2024-03-08T14:18:17;333.20;1766.40
55151;DHT22;41041;43.162;20.538;2024-03-08T23:16:06;128.80;2252.80
55151;DHT22;41041;43.162;20.538;2024-03-08T23:18:33;128.60;2252.80
55151;DHT22;41041;43.162;20.538;2024-03-08T23:20:59;128.50;2252.80
55151;DHT22;41041;43.162;20.538;2024-03-08T23:23:25;128.50;2252.80
55151;DHT22;41041;43.162;20.538;2024-03-08T23:25:51;128.40;2252.80
55151;DHT22;41041;43.162;20.538;2024-03-08T23:28:17;128.30;2252.80
55151;DHT22;41041;43.162;20.538;2024-03-08T23:30:43;128.20;2252.80
55151;DHT22;41041;43.162;20.538;2024-03-08T23:40:33;128.00;2252.80
55151;DHT22;41041;43.162;20.538;2024-03-08T23:42:59;103.30;2227.20
55151;DHT22;41041;43.162;20.538;2024-03-08T23:45:25;103.20;2227.20
55151;DHT22;41041;43.162;20.538;2024-03-08T23:47:56;103.20;2227.20
55151;DHT22;41041;43.162;20.538;2024-03-08T23:50:25;103.10;2227.20
